sensor_id;sensor_type;location;lat;lon;timestamp;P1;durP1;ratioP1;P2;durP2;ratioP2
5060;SDS011;2549;52.128;21.068;2023-07-30T00:00:38;5.07;;;2.40;;
5060;SDS011;2549;52.128;21.068;2023-07-30T00:03:05;1.93;;;1.80;;
5060;SDS011;2549;52.128;21.068;2023-07-30T00:05:32;2.47;;;2.13;;
5060;SDS011;2549;52.128;21.068;2023-07-30T00:07:59;2.30;;;1.80;;
5060;SDS011;2549;52.128;21.068;2023-07-30T00:10:25;3.17;;;2.23;;
5060;SDS011;2549;52.128;21.068;2023-07-30T00:12:52;2.37;;;2.17;;
5060;SDS011;2549;52.128;21.068;2023-07-30T00:15:19;2.43;;;2.20;;
5060;SDS011;2549;52.128;21.068;2023-07-30T00:17:46;6.67;;;2.60;;
5060;SDS011;2549;52.128;21.068;2023-07-30T00:20:13;2.20;;;2.10;;
5060;SDS011;2549;52.128;21.068;2023-07-30T00:22:40;1.87;;;1.77;;
5060;SDS011;2549;52.128;21.068;2023-07-30T00:25:07;2.63;;;2.37;;
5060;SDS011;2549;52.128;21.068;2023-07-30T00:27:34;4.43;;;2.57;;
5060;SDS011;2549;52.128;21.068;2023-07-30T00:30:01;6.30;;;2.53;;
5060;SDS011;2549;52.128;21.068;2023-07-30T00:32:28;3.40;;;2.10;;
5060;SDS011;2549;52.128;21.068;2023-07-30T00:34:55;2.70;;;2.07;;
5060;SDS011;2549;52.128;21.068;2023-07-30T00:37:22;7.27;;;3.30;;
5060;SDS011;2549;52.128;21.068;2023-07-30T00:39:49;5.47;;;2.00;;
5060;SDS011;2549;52.128;21.068;2023-07-30T00:42:16;4.57;;;1.97;;
5060;SDS011;2549;52.128;21.068;2023-07-30T00:44:43;3.40;;;2.13;;
5060;SDS011;2549;52.128;21.068;2023-07-30T00:47:09;3.60;;;2.13;;
5060;SDS011;2549;52.128;21.068;2023-07-30T00:49:36;2.83;;;2.17;;
5060;SDS011;2549;52.128;21.068;2023-07-30T00:52:05;3.23;;;2.00;;
5060;SDS011;2549;52.128;21.068;2023-07-30T00:54:33;2.93;;;2.50;;
5060;SDS011;2549;52.128;21.068;2023-07-30T00:57:00;1.60;;;1.50;;
5060;SDS011;2549;52.128;21.068;2023-07-30T00:59:27;3.17;;;1.70;;
5060;SDS011;2549;52.128;21.068;2023-07-30T01:01:54;3.90;;;2.10;;
5060;SDS011;2549;52.128;21.068;2023-07-30T01:04:24;2.67;;;2.30;;
5060;SDS011;2549;52.128;21.068;2023-07-30T01:06:51;2.27;;;2.17;;
5060;SDS011;2549;52.128;21.068;2023-07-30T01:09:18;3.03;;;2.13;;
5060;SDS011;2549;52.128;21.068;2023-07-30T01:11:45;3.30;;;2.33;;
5060;SDS011;2549;52.128;21.068;2023-07-30T01:14:13;3.60;;;1.80;;
5060;SDS011;2549;52.128;21.068;2023-07-30T01:16:41;1.80;;;1.57;;
5060;SDS011;2549;52.128;21.068;2023-07-30T01:19:08;4.97;;;2.17;;
5060;SDS011;2549;52.128;21.068;2023-07-30T01:21:36;1.80;;;1.70;;
5060;SDS011;2549;52.128;21.068;2023-07-30T01:24:04;9.50;;;1.80;;
5060;SDS011;2549;52.128;21.068;2023-07-30T01:26:43;3.30;;;3.00;;
5060;SDS011;2549;52.128;21.068;2023-07-30T01:29:14;1.80;;;1.70;;
5060;SDS011;2549;52.128;21.068;2023-07-30T01:31:48;2.23;;;2.00;;
5060;SDS011;2549;52.128;21.068;2023-07-30T01:34:21;2.83;;;2.17;;
5060;SDS011;2549;52.128;21.068;2023-07-30T01:36:51;2.80;;;1.80;;
5060;SDS011;2549;52.128;21.068;2023-07-30T01:39:22;4.83;;;2.77;;
5060;SDS011;2549;52.128;21.068;2023-07-30T01:41:53;5.20;;;2.20;;
5060;SDS011;2549;52.128;21.068;2023-07-30T01:44:20;2.47;;;1.90;;
5060;SDS011;2549;52.128;21.068;2023-07-30T01:46:47;2.20;;;2.00;;
5060;SDS011;2549;52.128;21.068;2023-07-30T01:49:14;5.67;;;1.80;;
5060;SDS011;2549;52.128;21.068;2023-07-30T01:51:41;2.17;;;1.87;;
5060;SDS011;2549;52.128;21.068;2023-07-30T01:54:08;2.03;;;1.90;;
5060;SDS011;2549;52.128;21.068;2023-07-30T01:56:35;1.90;;;1.60;;
5060;SDS011;2549;52.128;21.068;2023-07-30T01:59:01;2.20;;;1.83;;
5060;SDS011;2549;52.128;21.068;2023-07-30T02:01:28;2.10;;;1.93;;
5060;SDS011;2549;52.128;21.068;2023-07-30T02:03:55;4.63;;;1.90;;
5060;SDS011;2549;52.128;21.068;2023-07-30T02:06:22;2.13;;;1.93;;
5060;SDS011;2549;52.128;21.068;2023-07-30T02:08:49;2.30;;;1.63;;
5060;SDS011;2549;52.128;21.068;2023-07-30T02:11:16;2.60;;;1.90;;
5060;SDS011;2549;52.128;21.068;2023-07-30T02:13:43;1.90;;;1.80;;
5060;SDS011;2549;52.128;21.068;2023-07-30T02:16:09;4.53;;;2.40;;
5060;SDS011;2549;52.128;21.068;2023-07-30T02:18:36;2.13;;;2.03;;
5060;SDS011;2549;52.128;21.068;2023-07-30T02:21:03;1.57;;;1.53;;
5060;SDS011;2549;52.128;21.068;2023-07-30T02:23:30;1.70;;;1.60;;
5060;SDS011;2549;52.128;21.068;2023-07-30T02:25:57;1.97;;;1.77;;
5060;SDS011;2549;52.128;21.068;2023-07-30T02:28:24;2.03;;;1.93;;
5060;SDS011;2549;52.128;21.068;2023-07-30T02:30:51;2.03;;;1.93;;
5060;SDS011;2549;52.128;21.068;2023-07-30T02:33:18;1.90;;;1.80;;
5060;SDS011;2549;52.128;21.068;2023-07-30T02:35:44;2.07;;;1.97;;
5060;SDS011;2549;52.128;21.068;2023-07-30T02:38:11;3.20;;;1.90;;
5060;SDS011;2549;52.128;21.068;2023-07-30T02:40:38;1.80;;;1.70;;
5060;SDS011;2549;52.128;21.068;2023-07-30T02:43:05;8.83;;;2.40;;
5060;SDS011;2549;52.128;21.068;2023-07-30T02:45:32;1.77;;;1.67;;
5060;SDS011;2549;52.128;21.068;2023-07-30T02:47:59;4.27;;;2.10;;
5060;SDS011;2549;52.128;21.068;2023-07-30T02:50:26;2.90;;;2.20;;
5060;SDS011;2549;52.128;21.068;2023-07-30T02:52:53;2.93;;;2.50;;
5060;SDS011;2549;52.128;21.068;2023-07-30T02:55:20;2.40;;;2.20;;
5060;SDS011;2549;52.128;21.068;2023-07-30T02:57:47;4.10;;;2.10;;
5060;SDS011;2549;52.128;21.068;2023-07-30T03:00:14;5.53;;;2.07;;
5060;SDS011;2549;52.128;21.068;2023-07-30T03:02:40;4.00;;;2.40;;
5060;SDS011;2549;52.128;21.068;2023-07-30T03:05:07;4.97;;;2.33;;
5060;SDS011;2549;52.128;21.068;2023-07-30T03:07:35;4.40;;;2.33;;
5060;SDS011;2549;52.128;21.068;2023-07-30T03:10:02;3.10;;;2.80;;
5060;SDS011;2549;52.128;21.068;2023-07-30T03:12:29;5.87;;;3.20;;
5060;SDS011;2549;52.128;21.068;2023-07-30T03:14:56;2.40;;;2.30;;
5060;SDS011;2549;52.128;21.068;2023-07-30T03:17:22;5.43;;;2.30;;
5060;SDS011;2549;52.128;21.068;2023-07-30T03:19:49;3.00;;;2.80;;
5060;SDS011;2549;52.128;21.068;2023-07-30T03:22:16;3.10;;;2.00;;
5060;SDS011;2549;52.128;21.068;2023-07-30T03:24:45;3.80;;;2.77;;
5060;SDS011;2549;52.128;21.068;2023-07-30T03:27:13;2.73;;;2.60;;
5060;SDS011;2549;52.128;21.068;2023-07-30T03:29:40;7.13;;;2.70;;
5060;SDS011;2549;52.128;21.068;2023-07-30T03:32:07;3.23;;;2.90;;
5060;SDS011;2549;52.128;21.068;2023-07-30T03:34:34;4.47;;;2.93;;
5060;SDS011;2549;52.128;21.068;2023-07-30T03:37:01;3.30;;;2.80;;
5060;SDS011;2549;52.128;21.068;2023-07-30T03:39:28;4.83;;;2.30;;
5060;SDS011;2549;52.128;21.068;2023-07-30T03:41:55;3.13;;;2.83;;
5060;SDS011;2549;52.128;21.068;2023-07-30T03:44:22;4.20;;;3.13;;
5060;SDS011;2549;52.128;21.068;2023-07-30T03:46:48;7.30;;;2.50;;
5060;SDS011;2549;52.128;21.068;2023-07-30T03:49:15;3.10;;;2.50;;
5060;SDS011;2549;52.128;21.068;2023-07-30T03:51:42;3.90;;;3.27;;
5060;SDS011;2549;52.128;21.068;2023-07-30T03:54:09;2.77;;;2.63;;
5060;SDS011;2549;52.128;21.068;2023-07-30T03:56:36;3.30;;;3.10;;
5060;SDS011;2549;52.128;21.068;2023-07-30T03:59:03;5.87;;;3.03;;
5060;SDS011;2549;52.128;21.068;2023-07-30T04:01:30;7.60;;;3.03;;
5060;SDS011;2549;52.128;21.068;2023-07-30T04:03:57;3.90;;;3.50;;
5060;SDS011;2549;52.128;21.068;2023-07-30T04:06:24;4.23;;;3.20;;
5060;SDS011;2549;52.128;21.068;2023-07-30T04:08:50;6.23;;;3.73;;
5060;SDS011;2549;52.128;21.068;2023-07-30T04:11:17;4.20;;;3.20;;
5060;SDS011;2549;52.128;21.068;2023-07-30T04:13:44;3.40;;;3.20;;
5060;SDS011;2549;52.128;21.068;2023-07-30T04:16:11;7.10;;;3.73;;
5060;SDS011;2549;52.128;21.068;2023-07-30T04:18:38;5.23;;;3.00;;
5060;SDS011;2549;52.128;21.068;2023-07-30T04:21:05;3.97;;;3.57;;
5060;SDS011;2549;52.128;21.068;2023-07-30T04:23:31;5.40;;;3.03;;
5060;SDS011;2549;52.128;21.068;2023-07-30T04:25:58;9.37;;;3.17;;
5060;SDS011;2549;52.128;21.068;2023-07-30T04:28:25;4.70;;;3.50;;
5060;SDS011;2549;52.128;21.068;2023-07-30T04:30:52;3.30;;;3.00;;
5060;SDS011;2549;52.128;21.068;2023-07-30T04:33:19;10.53;;;4.50;;
5060;SDS011;2549;52.128;21.068;2023-07-30T04:35:45;4.20;;;3.57;;
5060;SDS011;2549;52.128;21.068;2023-07-30T04:38:12;4.50;;;3.80;;
5060;SDS011;2549;52.128;21.068;2023-07-30T04:40:39;6.20;;;3.10;;
5060;SDS011;2549;52.128;21.068;2023-07-30T04:43:06;3.53;;;3.23;;
5060;SDS011;2549;52.128;21.068;2023-07-30T04:45:34;9.00;;;3.60;;
5060;SDS011;2549;52.128;21.068;2023-07-30T04:48:01;4.60;;;2.87;;
5060;SDS011;2549;52.128;21.068;2023-07-30T04:50:28;4.30;;;3.47;;
5060;SDS011;2549;52.128;21.068;2023-07-30T04:52:55;3.03;;;2.63;;
5060;SDS011;2549;52.128;21.068;2023-07-30T04:55:22;2.97;;;2.77;;
5060;SDS011;2549;52.128;21.068;2023-07-30T04:57:49;4.03;;;3.27;;
5060;SDS011;2549;52.128;21.068;2023-07-30T05:00:16;2.90;;;2.70;;
5060;SDS011;2549;52.128;21.068;2023-07-30T05:02:43;4.50;;;2.90;;
5060;SDS011;2549;52.128;21.068;2023-07-30T05:05:10;5.60;;;3.40;;
5060;SDS011;2549;52.128;21.068;2023-07-30T05:07:37;5.33;;;3.40;;
5060;SDS011;2549;52.128;21.068;2023-07-30T05:10:04;6.73;;;3.23;;
5060;SDS011;2549;52.128;21.068;2023-07-30T05:12:34;4.60;;;3.23;;
5060;SDS011;2549;52.128;21.068;2023-07-30T05:15:00;4.73;;;2.40;;
5060;SDS011;2549;52.128;21.068;2023-07-30T05:17:27;3.90;;;2.30;;
5060;SDS011;2549;52.128;21.068;2023-07-30T05:19:54;2.63;;;2.43;;
5060;SDS011;2549;52.128;21.068;2023-07-30T05:22:21;3.30;;;2.10;;
5060;SDS011;2549;52.128;21.068;2023-07-30T05:24:48;2.93;;;2.73;;
5060;SDS011;2549;52.128;21.068;2023-07-30T05:27:15;6.37;;;2.67;;
5060;SDS011;2549;52.128;21.068;2023-07-30T05:29:42;4.13;;;2.20;;
5060;SDS011;2549;52.128;21.068;2023-07-30T05:32:10;2.10;;;2.00;;
5060;SDS011;2549;52.128;21.068;2023-07-30T05:34:38;3.60;;;2.37;;
5060;SDS011;2549;52.128;21.068;2023-07-30T05:37:05;2.03;;;1.93;;
5060;SDS011;2549;52.128;21.068;2023-07-30T05:39:32;7.53;;;2.60;;
5060;SDS011;2549;52.128;21.068;2023-07-30T05:41:59;1.97;;;1.87;;
5060;SDS011;2549;52.128;21.068;2023-07-30T05:44:26;3.70;;;2.00;;
5060;SDS011;2549;52.128;21.068;2023-07-30T05:46:53;4.20;;;2.00;;
5060;SDS011;2549;52.128;21.068;2023-07-30T05:49:20;4.17;;;2.40;;
5060;SDS011;2549;52.128;21.068;2023-07-30T05:51:46;2.90;;;2.07;;
5060;SDS011;2549;52.128;21.068;2023-07-30T05:54:13;3.73;;;2.10;;
5060;SDS011;2549;52.128;21.068;2023-07-30T05:56:40;2.17;;;2.00;;
5060;SDS011;2549;52.128;21.068;2023-07-30T05:59:07;4.60;;;1.87;;
5060;SDS011;2549;52.128;21.068;2023-07-30T06:01:34;3.13;;;2.70;;
5060;SDS011;2549;52.128;21.068;2023-07-30T06:04:01;5.13;;;2.43;;
5060;SDS011;2549;52.128;21.068;2023-07-30T06:06:28;4.93;;;2.57;;
5060;SDS011;2549;52.128;21.068;2023-07-30T06:08:55;2.33;;;2.13;;
5060;SDS011;2549;52.128;21.068;2023-07-30T06:11:23;4.03;;;3.67;;
5060;SDS011;2549;52.128;21.068;2023-07-30T06:13:49;4.13;;;3.47;;
5060;SDS011;2549;52.128;21.068;2023-07-30T06:16:16;3.47;;;3.27;;
5060;SDS011;2549;52.128;21.068;2023-07-30T06:18:46;3.60;;;3.40;;
5060;SDS011;2549;52.128;21.068;2023-07-30T06:21:13;4.90;;;4.50;;
5060;SDS011;2549;52.128;21.068;2023-07-30T06:23:39;5.03;;;4.63;;
5060;SDS011;2549;52.128;21.068;2023-07-30T06:26:06;5.10;;;4.60;;
5060;SDS011;2549;52.128;21.068;2023-07-30T06:28:33;4.23;;;3.93;;
5060;SDS011;2549;52.128;21.068;2023-07-30T06:31:03;4.60;;;4.20;;
5060;SDS011;2549;52.128;21.068;2023-07-30T06:33:30;5.63;;;4.13;;
5060;SDS011;2549;52.128;21.068;2023-07-30T06:35:58;5.27;;;4.77;;
5060;SDS011;2549;52.128;21.068;2023-07-30T06:38:25;5.97;;;5.40;;
5060;SDS011;2549;52.128;21.068;2023-07-30T06:40:52;4.83;;;4.43;;
5060;SDS011;2549;52.128;21.068;2023-07-30T06:43:19;5.20;;;4.70;;
5060;SDS011;2549;52.128;21.068;2023-07-30T06:45:46;6.10;;;4.60;;
5060;SDS011;2549;52.128;21.068;2023-07-30T06:48:13;4.90;;;4.40;;
5060;SDS011;2549;52.128;21.068;2023-07-30T06:50:41;7.63;;;4.80;;
5060;SDS011;2549;52.128;21.068;2023-07-30T06:53:08;7.17;;;4.33;;
5060;SDS011;2549;52.128;21.068;2023-07-30T06:55:36;5.10;;;4.70;;
5060;SDS011;2549;52.128;21.068;2023-07-30T06:58:03;4.70;;;4.30;;
5060;SDS011;2549;52.128;21.068;2023-07-30T07:00:30;3.77;;;3.47;;
5060;SDS011;2549;52.128;21.068;2023-07-30T07:02:57;9.20;;;4.83;;
5060;SDS011;2549;52.128;21.068;2023-07-30T07:05:24;6.10;;;4.57;;
5060;SDS011;2549;52.128;21.068;2023-07-30T07:07:51;5.40;;;4.47;;
5060;SDS011;2549;52.128;21.068;2023-07-30T07:10:18;5.00;;;4.10;;
5060;SDS011;2549;52.128;21.068;2023-07-30T07:12:45;5.17;;;3.83;;
5060;SDS011;2549;52.128;21.068;2023-07-30T07:15:11;6.50;;;4.80;;
5060;SDS011;2549;52.128;21.068;2023-07-30T07:17:39;5.63;;;5.13;;
5060;SDS011;2549;52.128;21.068;2023-07-30T07:20:06;4.50;;;4.20;;
5060;SDS011;2549;52.128;21.068;2023-07-30T07:22:33;8.63;;;4.80;;
5060;SDS011;2549;52.128;21.068;2023-07-30T07:25:00;8.20;;;5.30;;
5060;SDS011;2549;52.128;21.068;2023-07-30T07:27:27;5.87;;;5.37;;
5060;SDS011;2549;52.128;21.068;2023-07-30T07:29:54;5.60;;;5.10;;
5060;SDS011;2549;52.128;21.068;2023-07-30T07:32:21;9.20;;;4.67;;
5060;SDS011;2549;52.128;21.068;2023-07-30T07:34:48;7.80;;;4.67;;
5060;SDS011;2549;52.128;21.068;2023-07-30T07:37:16;5.30;;;3.50;;
5060;SDS011;2549;52.128;21.068;2023-07-30T07:39:45;6.10;;;3.47;;
5060;SDS011;2549;52.128;21.068;2023-07-30T07:42:12;4.83;;;4.20;;
5060;SDS011;2549;52.128;21.068;2023-07-30T07:44:39;3.17;;;2.97;;
5060;SDS011;2549;52.128;21.068;2023-07-30T07:47:06;4.60;;;4.20;;
5060;SDS011;2549;52.128;21.068;2023-07-30T07:49:33;7.10;;;3.80;;
5060;SDS011;2549;52.128;21.068;2023-07-30T07:51:59;4.73;;;3.10;;
5060;SDS011;2549;52.128;21.068;2023-07-30T07:54:26;4.70;;;3.40;;
5060;SDS011;2549;52.128;21.068;2023-07-30T07:56:53;5.80;;;3.30;;
5060;SDS011;2549;52.128;21.068;2023-07-30T07:59:20;2.93;;;2.30;;
5060;SDS011;2549;52.128;21.068;2023-07-30T08:01:47;9.43;;;4.50;;
5060;SDS011;2549;52.128;21.068;2023-07-30T08:04:13;5.23;;;3.50;;
5060;SDS011;2549;52.128;21.068;2023-07-30T08:06:41;2.90;;;2.57;;
5060;SDS011;2549;52.128;21.068;2023-07-30T08:09:08;3.43;;;3.10;;
5060;SDS011;2549;52.128;21.068;2023-07-30T08:11:34;3.20;;;2.90;;
5060;SDS011;2549;52.128;21.068;2023-07-30T08:14:02;9.47;;;2.80;;
5060;SDS011;2549;52.128;21.068;2023-07-30T08:16:28;3.47;;;2.50;;
5060;SDS011;2549;52.128;21.068;2023-07-30T08:18:55;6.63;;;2.90;;
5060;SDS011;2549;52.128;21.068;2023-07-30T08:21:22;4.73;;;2.80;;
5060;SDS011;2549;52.128;21.068;2023-07-30T08:23:49;4.70;;;2.97;;
5060;SDS011;2549;52.128;21.068;2023-07-30T08:26:16;3.03;;;2.80;;
5060;SDS011;2549;52.128;21.068;2023-07-30T08:28:43;3.57;;;2.40;;
5060;SDS011;2549;52.128;21.068;2023-07-30T08:31:10;3.40;;;2.43;;
5060;SDS011;2549;52.128;21.068;2023-07-30T08:33:37;6.20;;;2.53;;
5060;SDS011;2549;52.128;21.068;2023-07-30T08:36:03;3.83;;;2.40;;
5060;SDS011;2549;52.128;21.068;2023-07-30T08:38:30;3.20;;;3.00;;
5060;SDS011;2549;52.128;21.068;2023-07-30T08:40:57;2.27;;;2.07;;
5060;SDS011;2549;52.128;21.068;2023-07-30T08:43:24;2.60;;;2.50;;
5060;SDS011;2549;52.128;21.068;2023-07-30T08:45:51;7.43;;;2.90;;
5060;SDS011;2549;52.128;21.068;2023-07-30T08:48:18;2.67;;;2.53;;
5060;SDS011;2549;52.128;21.068;2023-07-30T08:50:45;6.23;;;2.47;;
5060;SDS011;2549;52.128;21.068;2023-07-30T08:53:14;2.17;;;2.07;;
5060;SDS011;2549;52.128;21.068;2023-07-30T08:55:44;2.77;;;2.57;;
5060;SDS011;2549;52.128;21.068;2023-07-30T08:58:13;2.03;;;1.93;;
5060;SDS011;2549;52.128;21.068;2023-07-30T09:00:43;3.23;;;3.03;;
5060;SDS011;2549;52.128;21.068;2023-07-30T09:03:12;3.13;;;2.93;;
5060;SDS011;2549;52.128;21.068;2023-07-30T09:05:41;3.43;;;3.10;;
5060;SDS011;2549;52.128;21.068;2023-07-30T09:08:08;2.87;;;2.77;;
5060;SDS011;2549;52.128;21.068;2023-07-30T09:10:36;3.90;;;2.97;;
5060;SDS011;2549;52.128;21.068;2023-07-30T09:13:02;2.87;;;2.77;;
5060;SDS011;2549;52.128;21.068;2023-07-30T09:15:30;3.77;;;3.40;;
5060;SDS011;2549;52.128;21.068;2023-07-30T09:17:59;3.00;;;2.70;;
5060;SDS011;2549;52.128;21.068;2023-07-30T09:20:27;3.27;;;2.97;;
5060;SDS011;2549;52.128;21.068;2023-07-30T09:22:57;5.13;;;3.13;;
5060;SDS011;2549;52.128;21.068;2023-07-30T09:25:24;2.80;;;2.60;;
5060;SDS011;2549;52.128;21.068;2023-07-30T09:27:51;2.80;;;2.57;;
5060;SDS011;2549;52.128;21.068;2023-07-30T09:30:24;3.60;;;3.40;;
5060;SDS011;2549;52.128;21.068;2023-07-30T09:32:53;3.10;;;2.90;;
5060;SDS011;2549;52.128;21.068;2023-07-30T09:35:21;4.10;;;2.97;;
5060;SDS011;2549;52.128;21.068;2023-07-30T09:37:58;2.80;;;2.70;;
5060;SDS011;2549;52.128;21.068;2023-07-30T09:40:33;2.80;;;2.50;;
5060;SDS011;2549;52.128;21.068;2023-07-30T09:43:02;2.90;;;2.70;;
5060;SDS011;2549;52.128;21.068;2023-07-30T09:45:34;3.10;;;2.40;;
5060;SDS011;2549;52.128;21.068;2023-07-30T09:48:03;2.50;;;2.40;;
5060;SDS011;2549;52.128;21.068;2023-07-30T09:50:36;2.90;;;2.70;;
5060;SDS011;2549;52.128;21.068;2023-07-30T09:53:04;2.93;;;2.73;;
5060;SDS011;2549;52.128;21.068;2023-07-30T09:55:31;2.40;;;2.20;;
5060;SDS011;2549;52.128;21.068;2023-07-30T09:57:58;2.67;;;2.20;;
5060;SDS011;2549;52.128;21.068;2023-07-30T10:00:25;4.57;;;2.50;;
5060;SDS011;2549;52.128;21.068;2023-07-30T10:02:55;4.70;;;2.70;;
5060;SDS011;2549;52.128;21.068;2023-07-30T10:05:26;2.20;;;2.10;;
5060;SDS011;2549;52.128;21.068;2023-07-30T10:07:59;3.23;;;2.70;;
5060;SDS011;2549;52.128;21.068;2023-07-30T10:10:30;2.63;;;2.40;;
5060;SDS011;2549;52.128;21.068;2023-07-30T10:12:59;2.40;;;2.20;;
5060;SDS011;2549;52.128;21.068;2023-07-30T10:15:33;2.80;;;2.60;;
5060;SDS011;2549;52.128;21.068;2023-07-30T10:18:01;2.80;;;2.60;;
5060;SDS011;2549;52.128;21.068;2023-07-30T10:20:30;2.60;;;2.40;;
5060;SDS011;2549;52.128;21.068;2023-07-30T10:22:58;5.27;;;2.63;;
5060;SDS011;2549;52.128;21.068;2023-07-30T10:25:28;2.80;;;2.60;;
5060;SDS011;2549;52.128;21.068;2023-07-30T10:27:58;7.47;;;2.37;;
5060;SDS011;2549;52.128;21.068;2023-07-30T10:30:30;2.53;;;2.33;;
5060;SDS011;2549;52.128;21.068;2023-07-30T10:38:16;4.53;;;2.67;;
5060;SDS011;2549;52.128;21.068;2023-07-30T10:41:26;2.30;;;2.20;;
5060;SDS011;2549;52.128;21.068;2023-07-30T10:43:36;2.77;;;2.50;;
5060;SDS011;2549;52.128;21.068;2023-07-30T10:46:05;3.17;;;2.47;;
5060;SDS011;2549;52.128;21.068;2023-07-30T10:48:34;3.00;;;2.70;;
5060;SDS011;2549;52.128;21.068;2023-07-30T10:51:04;2.53;;;2.33;;
5060;SDS011;2549;52.128;21.068;2023-07-30T10:53:32;6.50;;;3.30;;
5060;SDS011;2549;52.128;21.068;2023-07-30T10:56:05;3.40;;;3.10;;
5060;SDS011;2549;52.128;21.068;2023-07-30T10:58:34;3.57;;;2.20;;
5060;SDS011;2549;52.128;21.068;2023-07-30T11:01:02;2.47;;;2.27;;
5060;SDS011;2549;52.128;21.068;2023-07-30T11:03:30;2.70;;;2.60;;
5060;SDS011;2549;52.128;21.068;2023-07-30T11:06:01;4.30;;;2.50;;
5060;SDS011;2549;52.128;21.068;2023-07-30T11:08:39;2.20;;;2.10;;
5060;SDS011;2549;52.128;21.068;2023-07-30T11:11:08;2.53;;;2.33;;
5060;SDS011;2549;52.128;21.068;2023-07-30T11:13:39;2.67;;;2.57;;
5060;SDS011;2549;52.128;21.068;2023-07-30T11:16:08;3.57;;;2.40;;
5060;SDS011;2549;52.128;21.068;2023-07-30T11:18:37;2.90;;;2.70;;
5060;SDS011;2549;52.128;21.068;2023-07-30T11:21:05;3.50;;;3.30;;
5060;SDS011;2549;52.128;21.068;2023-07-30T11:23:36;3.50;;;2.73;;
5060;SDS011;2549;52.128;21.068;2023-07-30T11:26:06;3.07;;;2.87;;
5060;SDS011;2549;52.128;21.068;2023-07-30T11:28:38;2.97;;;2.77;;
5060;SDS011;2549;52.128;21.068;2023-07-30T11:33:35;7.30;;;2.70;;
5060;SDS011;2549;52.128;21.068;2023-07-30T11:36:03;3.03;;;2.83;;
5060;SDS011;2549;52.128;21.068;2023-07-30T11:38:31;2.80;;;2.60;;
5060;SDS011;2549;52.128;21.068;2023-07-30T11:40:59;4.17;;;3.30;;
5060;SDS011;2549;52.128;21.068;2023-07-30T11:43:27;3.30;;;3.10;;
5060;SDS011;2549;52.128;21.068;2023-07-30T11:48:36;3.00;;;2.80;;
5060;SDS011;2549;52.128;21.068;2023-07-30T11:51:03;2.67;;;2.47;;
5060;SDS011;2549;52.128;21.068;2023-07-30T11:53:43;2.53;;;2.43;;
5060;SDS011;2549;52.128;21.068;2023-07-30T11:56:18;4.40;;;2.63;;
5060;SDS011;2549;52.128;21.068;2023-07-30T11:58:48;2.43;;;2.30;;
5060;SDS011;2549;52.128;21.068;2023-07-30T12:01:17;2.30;;;2.20;;
5060;SDS011;2549;52.128;21.068;2023-07-30T12:03:44;3.07;;;2.80;;
5060;SDS011;2549;52.128;21.068;2023-07-30T12:06:12;2.13;;;2.03;;
5060;SDS011;2549;52.128;21.068;2023-07-30T12:08:39;5.83;;;2.83;;
5060;SDS011;2549;52.128;21.068;2023-07-30T12:11:07;6.80;;;2.60;;
5060;SDS011;2549;52.128;21.068;2023-07-30T12:13:42;2.20;;;2.10;;
5060;SDS011;2549;52.128;21.068;2023-07-30T12:16:13;2.93;;;2.40;;
5060;SDS011;2549;52.128;21.068;2023-07-30T12:18:42;6.67;;;3.00;;
5060;SDS011;2549;52.128;21.068;2023-07-30T12:21:09;2.73;;;2.33;;
5060;SDS011;2549;52.128;21.068;2023-07-30T12:23:37;3.93;;;2.20;;
5060;SDS011;2549;52.128;21.068;2023-07-30T12:26:04;4.60;;;2.33;;
5060;SDS011;2549;52.128;21.068;2023-07-30T12:28:32;2.17;;;2.07;;
5060;SDS011;2549;52.128;21.068;2023-07-30T12:31:00;2.90;;;2.70;;
5060;SDS011;2549;52.128;21.068;2023-07-30T12:33:27;2.17;;;2.03;;
5060;SDS011;2549;52.128;21.068;2023-07-30T12:35:54;2.97;;;2.70;;
5060;SDS011;2549;52.128;21.068;2023-07-30T12:38:21;2.27;;;2.17;;
5060;SDS011;2549;52.128;21.068;2023-07-30T12:40:48;2.37;;;2.17;;
5060;SDS011;2549;52.128;21.068;2023-07-30T12:43:16;3.87;;;2.63;;
5060;SDS011;2549;52.128;21.068;2023-07-30T12:45:45;5.57;;;2.43;;
5060;SDS011;2549;52.128;21.068;2023-07-30T12:48:14;2.20;;;2.10;;
5060;SDS011;2549;52.128;21.068;2023-07-30T12:50:41;2.30;;;2.20;;
5060;SDS011;2549;52.128;21.068;2023-07-30T12:53:11;3.07;;;2.87;;
5060;SDS011;2549;52.128;21.068;2023-07-30T12:55:38;3.43;;;2.80;;
5060;SDS011;2549;52.128;21.068;2023-07-30T12:58:05;3.03;;;2.50;;
5060;SDS011;2549;52.128;21.068;2023-07-30T13:00:33;4.13;;;2.37;;
5060;SDS011;2549;52.128;21.068;2023-07-30T13:03:00;2.60;;;2.50;;
5060;SDS011;2549;52.128;21.068;2023-07-30T13:05:28;3.10;;;2.80;;
5060;SDS011;2549;52.128;21.068;2023-07-30T13:07:55;4.40;;;2.70;;
5060;SDS011;2549;52.128;21.068;2023-07-30T13:10:22;6.50;;;3.23;;
5060;SDS011;2549;52.128;21.068;2023-07-30T13:12:49;2.63;;;2.43;;
5060;SDS011;2549;52.128;21.068;2023-07-30T13:15:16;4.40;;;2.80;;
5060;SDS011;2549;52.128;21.068;2023-07-30T13:17:43;5.23;;;3.10;;
5060;SDS011;2549;52.128;21.068;2023-07-30T13:20:10;4.00;;;3.33;;
5060;SDS011;2549;52.128;21.068;2023-07-30T13:22:37;12.93;;;2.73;;
5060;SDS011;2549;52.128;21.068;2023-07-30T13:25:04;3.03;;;2.40;;
5060;SDS011;2549;52.128;21.068;2023-07-30T13:27:31;3.03;;;2.73;;
5060;SDS011;2549;52.128;21.068;2023-07-30T13:30:02;2.70;;;2.50;;
5060;SDS011;2549;52.128;21.068;2023-07-30T13:32:29;3.00;;;2.70;;
5060;SDS011;2549;52.128;21.068;2023-07-30T13:34:56;2.43;;;2.23;;
5060;SDS011;2549;52.128;21.068;2023-07-30T13:37:23;2.70;;;2.60;;
5060;SDS011;2549;52.128;21.068;2023-07-30T13:39:49;2.60;;;2.27;;
5060;SDS011;2549;52.128;21.068;2023-07-30T13:42:16;2.33;;;2.13;;
5060;SDS011;2549;52.128;21.068;2023-07-30T13:44:43;2.37;;;2.20;;
5060;SDS011;2549;52.128;21.068;2023-07-30T13:47:10;2.83;;;2.57;;
5060;SDS011;2549;52.128;21.068;2023-07-30T13:49:40;2.30;;;2.13;;
5060;SDS011;2549;52.128;21.068;2023-07-30T13:52:07;4.10;;;2.50;;
5060;SDS011;2549;52.128;21.068;2023-07-30T13:54:34;21.87;;;2.37;;
5060;SDS011;2549;52.128;21.068;2023-07-30T13:57:03;3.50;;;2.33;;
5060;SDS011;2549;52.128;21.068;2023-07-30T13:59:31;2.33;;;2.23;;
5060;SDS011;2549;52.128;21.068;2023-07-30T14:01:58;2.20;;;2.00;;
5060;SDS011;2549;52.128;21.068;2023-07-30T14:04:26;6.43;;;2.97;;
5060;SDS011;2549;52.128;21.068;2023-07-30T14:06:53;2.40;;;2.30;;
5060;SDS011;2549;52.128;21.068;2023-07-30T14:09:20;2.30;;;2.20;;
5060;SDS011;2549;52.128;21.068;2023-07-30T14:11:47;3.27;;;2.50;;
5060;SDS011;2549;52.128;21.068;2023-07-30T14:14:14;2.73;;;2.47;;
5060;SDS011;2549;52.128;21.068;2023-07-30T14:16:41;2.13;;;2.03;;
5060;SDS011;2549;52.128;21.068;2023-07-30T14:19:08;2.90;;;2.70;;
5060;SDS011;2549;52.128;21.068;2023-07-30T14:21:34;2.40;;;2.20;;
5060;SDS011;2549;52.128;21.068;2023-07-30T14:24:02;1.90;;;1.80;;
5060;SDS011;2549;52.128;21.068;2023-07-30T14:26:29;2.10;;;2.00;;
5060;SDS011;2549;52.128;21.068;2023-07-30T14:28:55;2.33;;;2.23;;
5060;SDS011;2549;52.128;21.068;2023-07-30T14:31:22;2.53;;;2.03;;
5060;SDS011;2549;52.128;21.068;2023-07-30T14:33:50;2.20;;;2.10;;
5060;SDS011;2549;52.128;21.068;2023-07-30T14:36:17;2.20;;;2.10;;
5060;SDS011;2549;52.128;21.068;2023-07-30T14:38:44;1.93;;;1.83;;
5060;SDS011;2549;52.128;21.068;2023-07-30T14:41:11;3.90;;;2.20;;
5060;SDS011;2549;52.128;21.068;2023-07-30T14:43:38;2.03;;;1.93;;
5060;SDS011;2549;52.128;21.068;2023-07-30T14:46:05;3.63;;;2.03;;
5060;SDS011;2549;52.128;21.068;2023-07-30T14:48:33;2.03;;;1.93;;
5060;SDS011;2549;52.128;21.068;2023-07-30T14:51:00;1.90;;;1.80;;
5060;SDS011;2549;52.128;21.068;2023-07-30T14:53:27;2.60;;;1.67;;
5060;SDS011;2549;52.128;21.068;2023-07-30T14:55:53;3.37;;;2.33;;
5060;SDS011;2549;52.128;21.068;2023-07-30T14:58:20;2.30;;;2.10;;
5060;SDS011;2549;52.128;21.068;2023-07-30T15:00:47;2.10;;;2.00;;
5060;SDS011;2549;52.128;21.068;2023-07-30T15:03:14;3.63;;;2.00;;
5060;SDS011;2549;52.128;21.068;2023-07-30T15:05:41;3.13;;;1.83;;
5060;SDS011;2549;52.128;21.068;2023-07-30T15:08:08;3.60;;;2.57;;
5060;SDS011;2549;52.128;21.068;2023-07-30T15:10:35;2.50;;;2.00;;
5060;SDS011;2549;52.128;21.068;2023-07-30T15:13:02;1.87;;;1.77;;